sensor_id;sensor_type;location;lat;lon;timestamp;pressure;altitude;pressure_sealevel;temperature;humidity
64853;BME280;56050;55.558;-4.644;2023-02-28T00:00:48;103955.19;;;8.09;55.79
64853;BME280;56050;55.558;-4.644;2023-02-28T00:03:13;103959.47;;;8.10;55.71
64853;BME280;56050;55.558;-4.644;2023-02-28T00:05:39;103954.09;;;8.10;55.75
64853;BME280;56050;55.558;-4.644;2023-02-28T00:08:04;103953.59;;;8.08;55.71
64853;BME280;56050;55.558;-4.644;2023-02-28T00:10:31;103955.75;;;8.06;55.63
64853;BME280;56050;55.558;-4.644;2023-02-28T00:13:01;103948.00;;;8.05;55.81
64853;BME280;56050;55.558;-4.644;2023-02-28T00:15:27;103949.09;;;8.04;55.93
64853;BME280;56050;55.558;-4.644;2023-02-28T00:17:52;103959.06;;;8.03;55.78
64853;BME280;56050;55.558;-4.644;2023-02-28T00:20:18;103956.88;;;8.05;55.77
64853;BME280;56050;55.558;-4.644;2023-02-28T00:22:44;103952.56;;;8.04;55.74
64853;BME280;56050;55.558;-4.644;2023-02-28T00:25:14;103951.56;;;8.00;55.81
64853;BME280;56050;55.558;-4.644;2023-02-28T00:27:40;103953.44;;;8.00;55.80
64853;BME280;56050;55.558;-4.644;2023-02-28T00:30:07;103950.47;;;8.01;55.81
64853;BME280;56050;55.558;-4.644;2023-02-28T00:32:33;103948.31;;;8.03;55.87
64853;BME280;56050;55.558;-4.644;2023-02-28T00:35:00;103958.75;;;8.05;55.90
64853;BME280;56050;55.558;-4.644;2023-02-28T00:37:25;103960.06;;;8.07;55.99
64853;BME280;56050;55.558;-4.644;2023-02-28T00:39:50;103957.88;;;8.09;55.70
64853;BME280;56050;55.558;-4.644;2023-02-28T00:42:16;103956.78;;;8.10;55.78
64853;BME280;56050;55.558;-4.644;2023-02-28T00:44:41;103964.03;;;8.10;55.77
64853;BME280;56050;55.558;-4.644;2023-02-28T00:47:07;103965.41;;;8.07;55.87
64853;BME280;56050;55.558;-4.644;2023-02-28T00:49:32;103971.59;;;8.08;55.82
64853;BME280;56050;55.558;-4.644;2023-02-28T00:51:58;103969.41;;;8.10;55.71
64853;BME280;56050;55.558;-4.644;2023-02-28T00:54:23;103965.34;;;8.12;55.71
64853;BME280;56050;55.558;-4.644;2023-02-28T00:56:49;103964.28;;;8.13;55.74
64853;BME280;56050;55.558;-4.644;2023-02-28T00:59:16;103965.88;;;8.14;55.79
64853;BME280;56050;55.558;-4.644;2023-02-28T01:01:43;103970.13;;;8.15;55.69
64853;BME280;56050;55.558;-4.644;2023-02-28T01:04:09;103975.50;;;8.15;55.64
64853;BME280;56050;55.558;-4.644;2023-02-28T01:06:34;103976.31;;;8.16;55.69
64853;BME280;56050;55.558;-4.644;2023-02-28T01:08:59;103973.13;;;8.14;55.58
64853;BME280;56050;55.558;-4.644;2023-02-28T01:11:25;103983.06;;;8.13;55.60
64853;BME280;56050;55.558;-4.644;2023-02-28T01:13:50;103980.66;;;8.12;55.65
64853;BME280;56050;55.558;-4.644;2023-02-28T01:16:16;103984.72;;;8.09;55.65
64853;BME280;56050;55.558;-4.644;2023-02-28T01:18:42;103986.09;;;8.07;55.63
64853;BME280;56050;55.558;-4.644;2023-02-28T01:21:12;103974.06;;;8.04;55.71
64853;BME280;56050;55.558;-4.644;2023-02-28T01:23:38;103984.28;;;8.02;55.72
64853;BME280;56050;55.558;-4.644;2023-02-28T01:26:08;103979.50;;;7.99;55.93
64853;BME280;56050;55.558;-4.644;2023-02-28T01:28:35;103982.47;;;7.98;55.65
64853;BME280;56050;55.558;-4.644;2023-02-28T01:31:00;103980.06;;;7.96;55.94
64853;BME280;56050;55.558;-4.644;2023-02-28T01:33:26;103971.50;;;7.94;55.99
64853;BME280;56050;55.558;-4.644;2023-02-28T01:36:25;103975.81;;;7.95;55.99
64853;BME280;56050;55.558;-4.644;2023-02-28T01:38:44;103981.94;;;7.96;55.90
64853;BME280;56050;55.558;-4.644;2023-02-28T01:41:47;103980.63;;;7.93;55.92
64853;BME280;56050;55.558;-4.644;2023-02-28T01:47:10;103987.38;;;7.91;55.89
64853;BME280;56050;55.558;-4.644;2023-02-28T01:49:35;103982.59;;;7.88;56.05
64853;BME280;56050;55.558;-4.644;2023-02-28T01:52:01;103984.53;;;7.82;56.25
64853;BME280;56050;55.558;-4.644;2023-02-28T01:54:28;103989.97;;;7.77;56.15
64853;BME280;56050;55.558;-4.644;2023-02-28T01:57:01;103985.97;;;7.75;56.25
64853;BME280;56050;55.558;-4.644;2023-02-28T01:59:35;103981.13;;;7.77;56.31
64853;BME280;56050;55.558;-4.644;2023-02-28T02:02:03;103974.09;;;7.81;56.18
64853;BME280;56050;55.558;-4.644;2023-02-28T02:04:37;103991.00;;;7.81;56.23
64853;BME280;56050;55.558;-4.644;2023-02-28T02:07:05;103989.91;;;7.82;56.03
64853;BME280;56050;55.558;-4.644;2023-02-28T02:09:30;103988.31;;;7.81;56.21
64853;BME280;56050;55.558;-4.644;2023-02-28T02:11:56;103989.09;;;7.82;56.43
64853;BME280;56050;55.558;-4.644;2023-02-28T02:25:38;103999.25;;;7.85;56.13
64853;BME280;56050;55.558;-4.644;2023-02-28T02:36:39;103989.75;;;7.74;56.29
64853;BME280;56050;55.558;-4.644;2023-02-28T02:41:53;103992.72;;;7.72;56.16
64853;BME280;56050;55.558;-4.644;2023-02-28T02:44:24;103991.13;;;7.71;56.18
64853;BME280;56050;55.558;-4.644;2023-02-28T02:46:58;103995.16;;;7.68;56.14
64853;BME280;56050;55.558;-4.644;2023-02-28T02:49:29;104002.22;;;7.64;56.35
64853;BME280;56050;55.558;-4.644;2023-02-28T02:51:56;104004.16;;;7.59;56.34
64853;BME280;56050;55.558;-4.644;2023-02-28T02:54:27;104008.78;;;7.53;56.26
64853;BME280;56050;55.558;-4.644;2023-02-28T02:56:55;104012.00;;;7.50;56.35
64853;BME280;56050;55.558;-4.644;2023-02-28T02:59:22;104001.03;;;7.47;56.37
64853;BME280;56050;55.558;-4.644;2023-02-28T03:01:55;104005.41;;;7.43;56.48
64853;BME280;56050;55.558;-4.644;2023-02-28T03:04:24;104008.66;;;7.40;56.55
64853;BME280;56050;55.558;-4.644;2023-02-28T03:06:52;104012.41;;;7.39;56.83
64853;BME280;56050;55.558;-4.644;2023-02-28T03:09:23;104005.44;;;7.38;56.60
64853;BME280;56050;55.558;-4.644;2023-02-28T03:11:52;104006.28;;;7.33;56.64
64853;BME280;56050;55.558;-4.644;2023-02-28T03:20:04;104003.19;;;7.21;56.67
64853;BME280;56050;55.558;-4.644;2023-02-28T03:22:41;103991.44;;;7.17;56.82
64853;BME280;56050;55.558;-4.644;2023-02-28T03:25:34;103985.88;;;7.08;56.79
64853;BME280;56050;55.558;-4.644;2023-02-28T03:30:53;103982.50;;;6.98;56.97
64853;BME280;56050;55.558;-4.644;2023-02-28T03:33:23;103979.06;;;6.92;57.05
64853;BME280;56050;55.558;-4.644;2023-02-28T03:35:57;103972.66;;;6.88;57.10
64853;BME280;56050;55.558;-4.644;2023-02-28T03:38:33;103980.97;;;6.87;57.07
64853;BME280;56050;55.558;-4.644;2023-02-28T03:41:06;103977.00;;;6.84;57.32
64853;BME280;56050;55.558;-4.644;2023-02-28T03:43:38;103978.06;;;6.83;57.15
64853;BME280;56050;55.558;-4.644;2023-02-28T03:46:10;103974.88;;;6.81;57.26
64853;BME280;56050;55.558;-4.644;2023-02-28T03:48:45;103971.38;;;6.81;57.31
64853;BME280;56050;55.558;-4.644;2023-02-28T03:51:19;103977.81;;;6.80;57.16
64853;BME280;56050;55.558;-4.644;2023-02-28T03:53:53;103973.53;;;6.79;57.34
64853;BME280;56050;55.558;-4.644;2023-02-28T03:56:23;103975.97;;;6.75;57.17
64853;BME280;56050;55.558;-4.644;2023-02-28T03:59:19;103973.84;;;6.72;57.28
64853;BME280;56050;55.558;-4.644;2023-02-28T04:01:47;103966.88;;;6.71;57.25
64853;BME280;56050;55.558;-4.644;2023-02-28T04:04:14;103964.78;;;6.68;57.29
64853;BME280;56050;55.558;-4.644;2023-02-28T04:06:41;103968.28;;;6.64;57.48
64853;BME280;56050;55.558;-4.644;2023-02-28T04:09:08;103970.72;;;6.60;57.46
64853;BME280;56050;55.558;-4.644;2023-02-28T04:11:47;103968.34;;;6.59;57.66
64853;BME280;56050;55.558;-4.644;2023-02-28T04:14:14;103970.22;;;6.58;57.57
64853;BME280;56050;55.558;-4.644;2023-02-28T04:16:40;103971.53;;;6.61;57.45
64853;BME280;56050;55.558;-4.644;2023-02-28T04:19:07;103977.69;;;6.61;57.37
64853;BME280;56050;55.558;-4.644;2023-02-28T04:21:34;103972.63;;;6.60;57.55
64853;BME280;56050;55.558;-4.644;2023-02-28T04:24:00;103973.41;;;6.60;57.67
64853;BME280;56050;55.558;-4.644;2023-02-28T04:26:44;103977.69;;;6.61;57.60
64853;BME280;56050;55.558;-4.644;2023-02-28T04:29:12;103981.44;;;6.60;57.45
64853;BME280;56050;55.558;-4.644;2023-02-28T04:31:38;103979.59;;;6.56;57.42
64853;BME280;56050;55.558;-4.644;2023-02-28T04:34:04;103987.94;;;6.54;57.42
64853;BME280;56050;55.558;-4.644;2023-02-28T04:36:29;103987.13;;;6.54;57.70
64853;BME280;56050;55.558;-4.644;2023-02-28T04:38:54;103995.97;;;6.54;57.54
64853;BME280;56050;55.558;-4.644;2023-02-28T04:41:21;103994.59;;;6.57;57.43
64853;BME280;56050;55.558;-4.644;2023-02-28T04:43:48;103991.94;;;6.57;57.62
64853;BME280;56050;55.558;-4.644;2023-02-28T04:46:13;103995.94;;;6.59;57.63
64853;BME280;56050;55.558;-4.644;2023-02-28T04:48:39;103991.88;;;6.62;57.48
64853;BME280;56050;55.558;-4.644;2023-02-28T04:51:08;103997.50;;;6.60;57.66
64853;BME280;56050;55.558;-4.644;2023-02-28T04:53:35;103999.97;;;6.57;57.42
64853;BME280;56050;55.558;-4.644;2023-02-28T04:56:00;104009.06;;;6.56;57.51
64853;BME280;56050;55.558;-4.644;2023-02-28T04:58:26;104001.31;;;6.54;57.62
64853;BME280;56050;55.558;-4.644;2023-02-28T05:00:53;103995.97;;;6.54;57.85
64853;BME280;56050;55.558;-4.644;2023-02-28T05:03:20;103993.56;;;6.53;57.99
64853;BME280;56050;55.558;-4.644;2023-02-28T05:05:47;103996.53;;;6.51;58.01
64853;BME280;56050;55.558;-4.644;2023-02-28T05:08:12;103997.84;;;6.54;57.94
64853;BME280;56050;55.558;-4.644;2023-02-28T05:10:38;103999.72;;;6.53;57.97
64853;BME280;56050;55.558;-4.644;2023-02-28T05:13:03;103996.22;;;6.53;58.08
64853;BME280;56050;55.558;-4.644;2023-02-28T05:15:29;103996.53;;;6.51;57.94
64853;BME280;56050;55.558;-4.644;2023-02-28T05:17:54;104001.88;;;6.51;58.01
64853;BME280;56050;55.558;-4.644;2023-02-28T05:20:20;104003.47;;;6.52;58.20
64853;BME280;56050;55.558;-4.644;2023-02-28T05:22:46;103997.84;;;6.54;58.30
64853;BME280;56050;55.558;-4.644;2023-02-28T05:25:17;103999.16;;;6.56;58.21
64853;BME280;56050;55.558;-4.644;2023-02-28T05:27:43;104001.53;;;6.58;58.08
64853;BME280;56050;55.558;-4.644;2023-02-28T05:30:09;103999.69;;;6.58;58.17
64853;BME280;56050;55.558;-4.644;2023-02-28T05:32:38;104010.13;;;6.60;58.11
64853;BME280;56050;55.558;-4.644;2023-02-28T05:35:04;104006.09;;;6.62;58.00
64853;BME280;56050;55.558;-4.644;2023-02-28T05:37:29;104005.00;;;6.63;58.13
64853;BME280;56050;55.558;-4.644;2023-02-28T05:39:54;104000.94;;;6.66;57.93
64853;BME280;56050;55.558;-4.644;2023-02-28T05:42:20;104011.13;;;6.69;58.10
64853;BME280;56050;55.558;-4.644;2023-02-28T05:44:45;104014.56;;;6.74;57.92
64853;BME280;56050;55.558;-4.644;2023-02-28T05:47:11;104012.41;;;6.76;57.86
64853;BME280;56050;55.558;-4.644;2023-02-28T05:49:39;104017.78;;;6.76;57.92
64853;BME280;56050;55.558;-4.644;2023-02-28T05:52:04;104017.78;;;6.76;58.11
64853;BME280;56050;55.558;-4.644;2023-02-28T05:54:30;104009.19;;;6.74;58.19
64853;BME280;56050;55.558;-4.644;2023-02-28T05:56:55;104022.09;;;6.72;58.28
64853;BME280;56050;55.558;-4.644;2023-02-28T05:59:21;104026.94;;;6.70;58.35
64853;BME280;56050;55.558;-4.644;2023-02-28T06:01:46;104014.59;;;6.69;58.33
64853;BME280;56050;55.558;-4.644;2023-02-28T06:04:17;104022.94;;;6.68;58.82
64853;BME280;56050;55.558;-4.644;2023-02-28T06:06:48;104020.00;;;6.64;58.67
64853;BME280;56050;55.558;-4.644;2023-02-28T06:09:14;104018.13;;;6.65;58.63
64853;BME280;56050;55.558;-4.644;2023-02-28T06:11:40;104022.38;;;6.66;58.91
64853;BME280;56050;55.558;-4.644;2023-02-28T06:14:05;104024.81;;;6.67;58.58
64853;BME280;56050;55.558;-4.644;2023-02-28T06:16:33;104031.47;;;6.70;58.65
64853;BME280;56050;55.558;-4.644;2023-02-28T06:19:00;104033.34;;;6.69;58.69
64853;BME280;56050;55.558;-4.644;2023-02-28T06:21:26;104033.66;;;6.68;58.75
64853;BME280;56050;55.558;-4.644;2023-02-28T06:23:53;104036.59;;;6.66;58.77
64853;BME280;56050;55.558;-4.644;2023-02-28T06:26:18;104041.38;;;6.69;58.80
64853;BME280;56050;55.558;-4.644;2023-02-28T06:28:44;104043.25;;;6.69;58.68
64853;BME280;56050;55.558;-4.644;2023-02-28T06:31:10;104045.16;;;6.68;58.68
64853;BME280;56050;55.558;-4.644;2023-02-28T06:33:37;104049.16;;;6.71;58.78
64853;BME280;56050;55.558;-4.644;2023-02-28T06:36:05;104045.38;;;6.72;58.74
64853;BME280;56050;55.558;-4.644;2023-02-28T06:38:31;104047.81;;;6.73;58.88
64853;BME280;56050;55.558;-4.644;2023-02-28T06:40:58;104052.34;;;6.73;58.71
64853;BME280;56050;55.558;-4.644;2023-02-28T06:43:25;104045.94;;;6.74;58.78
64853;BME280;56050;55.558;-4.644;2023-02-28T06:45:54;104059.31;;;6.74;58.78
64853;BME280;56050;55.558;-4.644;2023-02-28T06:48:20;104046.72;;;6.74;58.72
64853;BME280;56050;55.558;-4.644;2023-02-28T06:50:46;104055.28;;;6.76;58.81
64853;BME280;56050;55.558;-4.644;2023-02-28T06:53:12;104049.94;;;6.76;58.76
64853;BME280;56050;55.558;-4.644;2023-02-28T06:55:38;104057.16;;;6.76;58.72
64853;BME280;56050;55.558;-4.644;2023-02-28T06:58:03;104055.03;;;6.73;58.85
64853;BME280;56050;55.558;-4.644;2023-02-28T07:00:38;104057.97;;;6.71;58.94
64853;BME280;56050;55.558;-4.644;2023-02-28T07:03:03;104047.25;;;6.71;58.92
64853;BME280;56050;55.558;-4.644;2023-02-28T07:05:29;104049.38;;;6.74;58.62
64853;BME280;56050;55.558;-4.644;2023-02-28T07:07:54;104055.56;;;6.75;58.82
64853;BME280;56050;55.558;-4.644;2023-02-28T07:10:20;104057.41;;;6.74;58.94
64853;BME280;56050;55.558;-4.644;2023-02-28T07:12:45;104052.63;;;6.71;58.88
64853;BME280;56050;55.558;-4.644;2023-02-28T07:15:10;104046.75;;;6.69;58.83
64853;BME280;56050;55.558;-4.644;2023-02-28T07:17:36;104051.28;;;6.69;58.97
64853;BME280;56050;55.558;-4.644;2023-02-28T07:20:01;104056.13;;;6.67;58.79
64853;BME280;56050;55.558;-4.644;2023-02-28T07:22:29;104058.81;;;6.67;58.84
64853;BME280;56050;55.558;-4.644;2023-02-28T07:24:55;104053.97;;;6.69;58.88
64853;BME280;56050;55.558;-4.644;2023-02-28T07:27:20;104052.41;;;6.68;58.76
64853;BME280;56050;55.558;-4.644;2023-02-28T07:29:49;104051.84;;;6.66;58.96
64853;BME280;56050;55.558;-4.644;2023-02-28T07:32:15;104050.78;;;6.67;58.93
64853;BME280;56050;55.558;-4.644;2023-02-28T07:34:40;104047.31;;;6.66;58.89
64853;BME280;56050;55.558;-4.644;2023-02-28T07:37:06;104048.41;;;6.65;58.90
64853;BME280;56050;55.558;-4.644;2023-02-28T07:39:31;104052.69;;;6.61;58.98
64853;BME280;56050;55.558;-4.644;2023-02-28T07:41:56;104058.59;;;6.58;59.02
64853;BME280;56050;55.558;-4.644;2023-02-28T07:44:22;104060.25;;;6.54;59.05
64853;BME280;56050;55.558;-4.644;2023-02-28T07:46:47;104068.84;;;6.51;59.08
64853;BME280;56050;55.558;-4.644;2023-02-28T07:49:12;104063.47;;;6.51;59.10
64853;BME280;56050;55.558;-4.644;2023-02-28T07:51:38;104061.59;;;6.52;59.08
64853;BME280;56050;55.558;-4.644;2023-02-28T07:54:03;104065.88;;;6.53;59.08
64853;BME280;56050;55.558;-4.644;2023-02-28T07:56:30;104068.84;;;6.51;59.25
64853;BME280;56050;55.558;-4.644;2023-02-28T07:58:55;104070.97;;;6.49;59.49
64853;BME280;56050;55.558;-4.644;2023-02-28T08:01:21;104071.28;;;6.42;59.35
64853;BME280;56050;55.558;-4.644;2023-02-28T08:03:47;104071.31;;;6.37;59.40
64853;BME280;56050;55.558;-4.644;2023-02-28T08:06:17;104077.75;;;6.36;59.57
64853;BME280;56050;55.558;-4.644;2023-02-28T08:08:42;104079.59;;;6.36;59.69
64853;BME280;56050;55.558;-4.644;2023-02-28T08:11:09;104081.78;;;6.34;59.65
64853;BME280;56050;55.558;-4.644;2023-02-28T08:13:35;104085.00;;;6.31;59.61
64853;BME280;56050;55.558;-4.644;2023-02-28T08:16:01;104081.50;;;6.30;59.64
64853;BME280;56050;55.558;-4.644;2023-02-28T08:18:27;104086.63;;;6.27;59.57
64853;BME280;56050;55.558;-4.644;2023-02-28T08:20:52;104087.69;;;6.26;59.77
64853;BME280;56050;55.558;-4.644;2023-02-28T08:23:17;104087.69;;;6.26;59.79
64853;BME280;56050;55.558;-4.644;2023-02-28T08:25:42;104093.03;;;6.26;59.81
64853;BME280;56050;55.558;-4.644;2023-02-28T08:28:08;104096.25;;;6.28;59.71
64853;BME280;56050;55.558;-4.644;2023-02-28T08:30:33;104094.38;;;6.28;59.75
64853;BME280;56050;55.558;-4.644;2023-02-28T08:32:59;104098.38;;;6.31;59.67
64853;BME280;56050;55.558;-4.644;2023-02-28T08:35:24;104094.88;;;6.35;59.54
64853;BME280;56050;55.558;-4.644;2023-02-28T08:37:50;104096.44;;;6.41;59.47
64853;BME280;56050;55.558;-4.644;2023-02-28T08:40:15;104096.97;;;6.48;59.59
64853;BME280;56050;55.558;-4.644;2023-02-28T08:42:46;104104.16;;;6.53;59.41
64853;BME280;56050;55.558;-4.644;2023-02-28T08:45:14;104108.44;;;6.59;59.38
64853;BME280;56050;55.558;-4.644;2023-02-28T08:47:40;104101.16;;;6.65;59.31
64853;BME280;56050;55.558;-4.644;2023-02-28T08:50:05;104101.13;;;6.70;59.37
64853;BME280;56050;55.558;-4.644;2023-02-28T08:52:31;104105.66;;;6.74;59.37
64853;BME280;56050;55.558;-4.644;2023-02-28T08:54:56;104106.72;;;6.78;59.49
64853;BME280;56050;55.558;-4.644;2023-02-28T08:57:22;104107.19;;;6.85;59.27
64853;BME280;56050;55.558;-4.644;2023-02-28T08:59:47;104108.50;;;6.93;59.28
64853;BME280;56050;55.558;-4.644;2023-02-28T09:02:13;104098.56;;;6.98;59.22
64853;BME280;56050;55.558;-4.644;2023-02-28T09:04:39;104110.59;;;7.01;59.22
64853;BME280;56050;55.558;-4.644;2023-02-28T09:07:05;104102.25;;;7.02;59.29
64853;BME280;56050;55.558;-4.644;2023-02-28T09:09:30;104099.28;;;7.09;59.19
64853;BME280;56050;55.558;-4.644;2023-02-28T09:11:56;104099.47;;;7.18;59.39
64853;BME280;56050;55.558;-4.644;2023-02-28T09:14:22;104102.91;;;7.23;59.37
64853;BME280;56050;55.558;-4.644;2023-02-28T09:16:47;104101.25;;;7.27;59.33
64853;BME280;56050;55.558;-4.644;2023-02-28T09:19:13;104098.31;;;7.29;59.44
64853;BME280;56050;55.558;-4.644;2023-02-28T09:21:38;104106.28;;;7.39;59.35
64853;BME280;56050;55.558;-4.644;2023-02-28T09:24:04;104102.22;;;7.41;59.28
64853;BME280;56050;55.558;-4.644;2023-02-28T09:26:29;104105.16;;;7.45;59.36
64853;BME280;56050;55.558;-4.644;2023-02-28T09:28:55;104112.34;;;7.49;59.31
64853;BME280;56050;55.558;-4.644;2023-02-28T09:31:24;104104.25;;;7.54;59.38
64853;BME280;56050;55.558;-4.644;2023-02-28T09:33:51;104095.88;;;7.61;59.33
64853;BME280;56050;55.558;-4.644;2023-02-28T09:36:18;104095.31;;;7.64;59.31
64853;BME280;56050;55.558;-4.644;2023-02-28T09:38:44;104091.25;;;7.66;59.38
64853;BME280;56050;55.558;-4.644;2023-02-28T09:41:16;104098.19;;;7.73;59.33
64853;BME280;56050;55.558;-4.644;2023-02-28T09:43:46;104107.78;;;7.79;59.39
64853;BME280;56050;55.558;-4.644;2023-02-28T09:48:50;104103.69;;;7.86;59.20
64853;BME280;56050;55.558;-4.644;2023-02-28T09:54:14;104108.69;;;7.93;59.06
64853;BME280;56050;55.558;-4.644;2023-02-28T09:56:50;104103.63;;;7.91;59.04
64853;BME280;56050;55.558;-4.644;2023-02-28T09:59:29;104103.84;;;7.95;59.10
64853;BME280;56050;55.558;-4.644;2023-02-28T10:03:03;104108.88;;;8.01;59.38
64853;BME280;56050;55.558;-4.644;2023-02-28T10:05:12;104101.22;;;8.13;59.04
64853;BME280;56050;55.558;-4.644;2023-02-28T10:13:06;104102.81;;;8.38;58.94
64853;BME280;56050;55.558;-4.644;2023-02-28T10:15:34;104106.75;;;8.46;58.68
64853;BME280;56050;55.558;-4.644;2023-02-28T10:18:04;104111.47;;;8.54;58.49
64853;BME280;56050;55.558;-4.644;2023-02-28T10:20:33;104108.94;;;8.62;58.61
64853;BME280;56050;55.558;-4.644;2023-02-28T10:25:32;104112.00;;;8.74;58.34
64853;BME280;56050;55.558;-4.644;2023-02-28T10:28:09;104116.81;;;8.77;58.30
64853;BME280;56050;55.558;-4.644;2023-02-28T10:30:39;104107.63;;;8.78;58.17
64853;BME280;56050;55.558;-4.644;2023-02-28T10:33:32;104103.88;;;8.79;58.25
64853;BME280;56050;55.558;-4.644;2023-02-28T10:35:59;104101.91;;;8.85;58.10
64853;BME280;56050;55.558;-4.644;2023-02-28T10:38:37;104100.25;;;8.89;58.21
64853;BME280;56050;55.558;-4.644;2023-02-28T10:41:28;104102.78;;;8.99;58.14
64853;BME280;56050;55.558;-4.644;2023-02-28T10:46:41;104103.19;;;9.06;58.00
64853;BME280;56050;55.558;-4.644;2023-02-28T10:49:27;104101.22;;;9.12;57.94
64853;BME280;56050;55.558;-4.644;2023-02-28T10:51:59;104100.34;;;9.16;57.80
64853;BME280;56050;55.558;-4.644;2023-02-28T10:54:32;104100.50;;;9.25;57.85
64853;BME280;56050;55.558;-4.644;2023-02-28T10:57:23;104095.44;;;9.37;57.67
64853;BME280;56050;55.558;-4.644;2023-02-28T10:59:53;104099.25;;;9.50;57.37
64853;BME280;56050;55.558;-4.644;2023-02-28T11:02:33;104093.78;;;9.55;57.23
64853;BME280;56050;55.558;-4.644;2023-02-28T11:04:59;104106.75;;;9.53;57.13
64853;BME280;56050;55.558;-4.644;2023-02-28T11:07:26;104105.13;;;9.52;57.27
64853;BME280;56050;55.558;-4.644;2023-02-28T11:09:54;104098.38;;;9.54;57.24
64853;BME280;56050;55.558;-4.644;2023-02-28T11:12:37;104095.06;;;9.57;57.50
64853;BME280;56050;55.558;-4.644;2023-02-28T11:18:19;104092.88;;;9.59;57.27
64853;BME280;56050;55.558;-4.644;2023-02-28T11:20:49;104094.69;;;9.64;57.03
64853;BME280;56050;55.558;-4.644;2023-02-28T11:23:16;104094.59;;;9.69;56.96
64853;BME280;56050;55.558;-4.644;2023-02-28T11:25:55;104097.69;;;9.76;56.91
64853;BME280;56050;55.558;-4.644;2023-02-28T11:28:31;104091.13;;;9.82;56.72
64853;BME280;56050;55.558;-4.644;2023-02-28T11:33:31;104100.41;;;9.89;56.57
64853;BME280;56050;55.558;-4.644;2023-02-28T11:36:03;104110.66;;;9.87;56.59
64853;BME280;56050;55.558;-4.644;2023-02-28T11:38:34;104108.25;;;9.86;56.41
64853;BME280;56050;55.558;-4.644;2023-02-28T11:41:22;104101.41;;;9.80;56.12
64853;BME280;56050;55.558;-4.644;2023-02-28T11:46:30;104094.09;;;9.67;55.80
64853;BME280;56050;55.558;-4.644;2023-02-28T11:52:45;104104.63;;;9.50;55.74
64853;BME280;56050;55.558;-4.644;2023-02-28T12:00:49;104110.78;;;9.50;55.82
64853;BME280;56050;55.558;-4.644;2023-02-28T12:03:42;104108.41;;;9.49;55.87
64853;BME280;56050;55.558;-4.644;2023-02-28T12:09:13;104113.09;;;9.43;55.84
64853;BME280;56050;55.558;-4.644;2023-02-28T12:11:52;104118.78;;;9.41;55.94
64853;BME280;56050;55.558;-4.644;2023-02-28T12:19:48;104111.28;;;9.38;55.85
64853;BME280;56050;55.558;-4.644;2023-02-28T12:27:33;104108.88;;;9.37;55.78
64853;BME280;56050;55.558;-4.644;2023-02-28T12:30:17;104111.06;;;9.35;55.80
64853;BME280;56050;55.558;-4.644;2023-02-28T12:32:49;104101.91;;;9.36;55.79
64853;BME280;56050;55.558;-4.644;2023-02-28T12:35:22;104106.78;;;9.34;55.70
64853;BME280;56050;55.558;-4.644;2023-02-28T12:37:57;104105.78;;;9.30;55.87
64853;BME280;56050;55.558;-4.644;2023-02-28T12:40:41;104101.69;;;9.32;55.78
64853;BME280;56050;55.558;-4.644;2023-02-28T12:43:09;104110.28;;;9.34;55.77
64853;BME280;56050;55.558;-4.644;2023-02-28T12:45:51;104102.69;;;9.36;55.80
64853;BME280;56050;55.558;-4.644;2023-02-28T12:48:27;104104.31;;;9.37;55.65
64853;BME280;56050;55.558;-4.644;2023-02-28T12:50:54;104098.91;;;9.37;55.66
64853;BME280;56050;55.558;-4.644;2023-02-28T12:58:39;104096.53;;;9.36;55.67
64853;BME280;56050;55.558;-4.644;2023-02-28T13:01:36;104097.91;;;9.33;55.62
64853;BME280;56050;55.558;-4.644;2023-02-28T13:04:29;104095.72;;;9.35;55.74
64853;BME280;56050;55.558;-4.644;2023-02-28T13:09:40;104080.66;;;9.34;55.43
64853;BME280;56050;55.558;-4.644;2023-02-28T13:12:15;104082.38;;;9.30;55.29
64853;BME280;56050;55.558;-4.644;2023-02-28T13:14:42;104075.16;;;9.26;55.03
64853;BME280;56050;55.558;-4.644;2023-02-28T13:19:55;104081.94;;;9.23;55.06
64853;BME280;56050;55.558;-4.644;2023-02-28T13:24:52;104077.16;;;9.20;54.77
64853;BME280;56050;55.558;-4.644;2023-02-28T13:27:22;104066.88;;;9.22;54.70
64853;BME280;56050;55.558;-4.644;2023-02-28T13:29:52;104062.59;;;9.21;54.68
64853;BME280;56050;55.558;-4.644;2023-02-28T13:33:17;104059.34;;;9.24;54.89
64853;BME280;56050;55.558;-4.644;2023-02-28T13:35:38;104059.25;;;9.29;54.75
64853;BME280;56050;55.558;-4.644;2023-02-28T13:38:21;104058.06;;;9.35;54.78
64853;BME280;56050;55.558;-4.644;2023-02-28T13:40:48;104062.75;;;9.43;54.72
64853;BME280;56050;55.558;-4.644;2023-02-28T13:43:17;104057.06;;;9.45;54.65
64853;BME280;56050;55.558;-4.644;2023-02-28T13:46:07;104053.41;;;9.41;54.43
64853;BME280;56050;55.558;-4.644;2023-02-28T13:48:35;104053.66;;;9.39;54.10
64853;BME280;56050;55.558;-4.644;2023-02-28T13:51:39;104046.19;;;9.36;54.42
64853;BME280;56050;55.558;-4.644;2023-02-28T13:57:42;104028.06;;;9.42;54.24
64853;BME280;56050;55.558;-4.644;2023-02-28T14:05:46;104026.28;;;9.51;53.93
64853;BME280;56050;55.558;-4.644;2023-02-28T14:08:22;104013.84;;;9.55;53.81
64853;BME280;56050;55.558;-4.644;2023-02-28T14:10:51;104008.63;;;9.59;53.91
64853;BME280;56050;55.558;-4.644;2023-02-28T14:13:45;104010.63;;;9.67;53.86
64853;BME280;56050;55.558;-4.644;2023-02-28T14:16:17;104013.25;;;9.72;53.45
64853;BME280;56050;55.558;-4.644;2023-02-28T14:18:51;104007.66;;;9.68;52.57
64853;BME280;56050;55.558;-4.644;2023-02-28T14:21:27;103999.47;;;9.60;53.16
64853;BME280;56050;55.558;-4.644;2023-02-28T14:24:22;103993.88;;;9.56;53.37
64853;BME280;56050;55.558;-4.644;2023-02-28T14:26:59;103986.81;;;9.60;53.29
64853;BME280;56050;55.558;-4.644;2023-02-28T14:34:53;103992.59;;;9.67;53.45
64853;BME280;56050;55.558;-4.644;2023-02-28T14:37:29;104001.19;;;9.69;53.48
64853;BME280;56050;55.558;-4.644;2023-02-28T14:39:57;103996.78;;;9.73;53.38
64853;BME280;56050;55.558;-4.644;2023-02-28T14:44:54;103994.28;;;9.77;53.40
64853;BME280;56050;55.558;-4.644;2023-02-28T14:47:27;103994.78;;;9.79;52.93
64853;BME280;56050;55.558;-4.644;2023-02-28T14:49:53;103988.09;;;9.76;53.21
64853;BME280;56050;55.558;-4.644;2023-02-28T14:52:21;103989.41;;;9.79;53.21
64853;BME280;56050;55.558;-4.644;2023-02-28T14:54:53;103986.72;;;9.79;53.36